createdAt,value
2022-09-22T00:01:46.290Z,17.13
2022-09-22T00:08:33.962Z,17.04
2022-09-22T00:15:20.129Z,16.96
2022-09-22T00:22:09.056Z,16.86
2022-09-22T00:28:55.757Z,16.80
2022-09-22T00:35:41.247Z,16.70
2022-09-22T00:42:29.251Z,16.24
2022-09-22T00:49:16.330Z,16.46
2022-09-22T00:56:06.390Z,16.39
2022-09-22T01:02:58.925Z,16.22
2022-09-22T01:09:44.607Z,16.13
2022-09-22T01:16:45.376Z,16.01
2022-09-22T01:24:19.219Z,15.94
2022-09-22T01:31:13.751Z,15.86
2022-09-22T01:38:09.033Z,15.80
2022-09-22T01:45:00.714Z,15.76
2022-09-22T01:51:53.382Z,15.65
2022-09-22T01:58:44.075Z,15.55
2022-09-22T02:05:36.729Z,15.47
2022-09-22T02:12:24.691Z,15.00
2022-09-22T02:19:16.836Z,15.26
2022-09-22T02:26:03.501Z,15.25
2022-09-22T02:32:54.197Z,15.17
2022-09-22T02:39:48.077Z,15.13
2022-09-22T03:00:24.854Z,14.74
2022-09-22T03:07:10.249Z,14.41
2022-09-22T03:13:55.668Z,14.93
2022-09-22T03:20:43.770Z,14.87
2022-09-22T03:27:29.267Z,14.86
2022-09-22T03:34:14.635Z,14.63
2022-09-22T03:41:03.111Z,14.69
2022-09-22T03:47:48.869Z,14.76
2022-09-22T03:54:35.276Z,14.71
2022-09-22T04:01:23.677Z,14.57
2022-09-22T04:08:09.467Z,14.41
2022-09-22T04:14:55.033Z,14.33
2022-09-22T04:21:43.187Z,14.30
2022-09-22T04:28:28.798Z,14.30
2022-09-22T04:35:14.185Z,14.32
2022-09-22T04:42:02.567Z,14.30
2022-09-22T04:48:48.132Z,14.25
2022-09-22T04:55:33.516Z,14.15
2022-09-22T05:02:21.470Z,13.93
2022-09-22T05:09:07.605Z,14.10
2022-09-22T05:15:53.035Z,14.12
2022-09-22T05:22:42.332Z,14.02
2022-09-22T05:29:28.244Z,14.03
2022-09-22T05:36:13.931Z,13.95
2022-09-22T05:43:01.947Z,13.91
2022-09-22T05:49:47.264Z,13.95
2022-09-22T05:56:34.464Z,13.93
2022-09-22T06:03:22.420Z,13.86
2022-09-22T06:10:11.609Z,13.83
2022-09-22T06:16:59.128Z,13.82
2022-09-22T06:23:47.386Z,13.83
2022-09-22T06:30:33.495Z,13.95
2022-09-22T06:37:19.716Z,14.09
2022-09-22T06:44:11.016Z,14.19
2022-09-22T06:50:57.724Z,14.32
2022-09-22T06:57:43.264Z,14.66
2022-09-22T07:04:31.220Z,14.56
2022-09-22T07:11:18.062Z,14.70
2022-09-22T07:18:03.431Z,15.06
2022-09-22T07:24:51.423Z,14.99
2022-09-22T07:31:37.732Z,15.09
2022-09-22T07:38:24.463Z,15.25
2022-09-22T07:45:16.585Z,15.33
2022-09-22T07:52:02.046Z,15.46
2022-09-22T07:58:53.463Z,15.64
2022-09-22T08:05:41.666Z,15.88
2022-09-22T08:12:27.118Z,16.24
2022-09-22T08:19:14.823Z,16.48
2022-09-22T08:26:09.455Z,16.08
2022-09-22T08:32:55.022Z,16.86
2022-09-22T08:39:40.653Z,17.03
2022-09-22T08:46:33.284Z,17.18
2022-09-22T08:53:23.607Z,17.45
2022-09-22T09:00:15.913Z,17.71
2022-09-22T09:07:13.020Z,17.98
2022-09-22T09:14:15.324Z,18.32
2022-09-22T09:21:02.527Z,18.66
2022-09-22T09:27:57.236Z,18.96
2022-09-22T09:34:42.883Z,19.37
2022-09-22T09:41:34.811Z,19.64
2022-09-22T09:48:35.255Z,19.80
2022-09-22T09:55:27.229Z,20.18
2022-09-22T10:02:19.788Z,20.47
2022-09-22T10:09:07.935Z,20.64
2022-09-22T10:16:23.567Z,21.01
2022-09-22T10:23:24.583Z,21.26
2022-09-22T10:30:25.967Z,21.48
2022-09-22T10:37:15.582Z,21.64
2022-09-22T10:44:27.687Z,21.18
2022-09-22T10:51:25.304Z,21.71
2022-09-22T10:58:39.790Z,21.64
2022-09-22T11:05:55.567Z,21.49
2022-09-22T11:12:56.140Z,21.63
2022-09-22T11:20:12.496Z,21.64
2022-09-22T11:26:59.736Z,21.74
2022-09-22T11:34:18.660Z,21.80
2022-09-22T11:41:21.311Z,21.90
2022-09-22T11:48:21.147Z,21.98
2022-09-22T11:55:23.750Z,21.88
2022-09-22T12:02:20.273Z,22.19
2022-09-22T12:09:09.747Z,22.33
2022-09-22T12:16:08.294Z,22.52
2022-09-22T12:23:21.869Z,22.66
2022-09-22T12:30:20.071Z,22.75
2022-09-22T12:37:17.280Z,22.81
2022-09-22T12:44:12.354Z,22.87
2022-09-22T12:51:33.740Z,22.90
2022-09-22T12:58:44.781Z,22.97
2022-09-22T13:05:51.493Z,23.12
2022-09-22T13:12:39.504Z,22.19
2022-09-22T13:19:24.817Z,23.05
2022-09-22T13:26:13.837Z,23.06
2022-09-22T13:33:01.924Z,23.02
2022-09-22T13:39:51.871Z,23.07
2022-09-22T13:46:42.886Z,23.15
2022-09-22T13:53:31.180Z,23.20
2022-09-22T14:00:27.109Z,23.14
2022-09-22T14:07:14.605Z,23.25
2022-09-22T14:14:06.830Z,23.11
2022-09-22T14:20:54.016Z,23.34
2022-09-22T14:27:47.901Z,23.39
2022-09-22T14:34:37.965Z,23.55
2022-09-22T14:41:26.552Z,23.31
2022-09-22T14:48:23.437Z,23.74
2022-09-22T14:55:20.125Z,23.86
2022-09-22T15:02:23.388Z,23.90
2022-09-22T15:09:10.556Z,23.87
2022-09-22T15:15:59.563Z,23.82
2022-09-22T15:22:46.320Z,23.74
2022-09-22T15:29:32.373Z,23.78
2022-09-22T15:36:23.004Z,23.85
2022-09-22T15:43:13.507Z,23.73
2022-09-22T15:49:59.532Z,23.49
2022-09-22T15:56:50.368Z,23.72
2022-09-22T16:03:41.200Z,23.70
2022-09-22T16:10:26.873Z,23.65
2022-09-22T16:17:14.824Z,23.68
2022-09-22T16:24:03.969Z,23.67
2022-09-22T16:30:49.495Z,23.60
2022-09-22T16:37:37.508Z,23.53
2022-09-22T16:44:23.062Z,23.52
2022-09-22T16:51:09.133Z,23.50
2022-09-22T16:57:58.381Z,23.56
2022-09-22T17:04:44.151Z,23.30
2022-09-22T17:11:34.521Z,23.25
2022-09-22T17:18:23.728Z,23.19
2022-09-22T17:25:11.179Z,23.16
2022-09-22T17:31:59.613Z,22.85
2022-09-22T17:38:48.383Z,23.01
2022-09-22T17:45:33.832Z,22.96
2022-09-22T17:52:32.827Z,22.90
2022-09-22T17:59:21.911Z,22.77
2022-09-22T18:06:15.894Z,22.73
2022-09-22T18:13:02.640Z,22.62
2022-09-22T18:19:50.985Z,22.56
2022-09-22T18:26:43.227Z,22.52
2022-09-22T18:33:29.202Z,22.48
2022-09-22T18:40:18.222Z,22.32
2022-09-22T18:47:04.154Z,22.21
2022-09-22T18:53:50.350Z,22.08
2022-09-22T19:00:38.360Z,21.91
2022-09-22T19:07:41.110Z,21.77
2022-09-22T19:14:27.832Z,21.68
2022-09-22T19:21:15.816Z,21.56
2022-09-22T19:28:02.422Z,21.44
2022-09-22T19:34:51.512Z,21.32
2022-09-22T19:41:40.696Z,21.21
2022-09-22T19:48:26.160Z,21.18
2022-09-22T19:55:16.919Z,21.13
2022-09-22T20:02:06.987Z,21.01
2022-09-22T20:08:55.830Z,20.95
2022-09-22T20:15:41.357Z,20.90
2022-09-22T20:22:33.283Z,20.83
2022-09-22T20:29:20.624Z,20.82
2022-09-22T20:36:06.756Z,20.75
2022-09-22T20:42:57.237Z,20.59
2022-09-22T20:49:46.971Z,20.64
2022-09-22T20:56:40.633Z,20.58
2022-09-22T21:03:31.942Z,20.52
2022-09-22T21:10:29.998Z,20.09
2022-09-22T21:17:15.630Z,20.39
2022-09-22T21:24:04.846Z,19.76
2022-09-22T21:30:58.609Z,20.23
2022-09-22T21:37:44.705Z,20.24
2022-09-22T21:44:32.650Z,20.17
2022-09-22T21:51:20.416Z,20.16
2022-09-22T21:58:05.976Z,20.15
2022-09-22T22:04:55.744Z,20.10
2022-09-22T22:11:43.521Z,19.98
2022-09-22T22:18:29.186Z,19.91
2022-09-22T22:25:19.509Z,19.87
2022-09-22T22:32:06.826Z,19.78
2022-09-22T22:38:56.190Z,19.59
2022-09-22T22:45:46.781Z,19.62
2022-09-22T22:52:32.171Z,19.58
2022-09-22T22:59:18.233Z,19.47
2022-09-22T23:06:06.363Z,19.27
2022-09-22T23:12:52.461Z,19.01
2022-09-22T23:19:37.833Z,18.80
2022-09-22T23:26:27.956Z,18.59
2022-09-22T23:33:13.629Z,18.44
2022-09-22T23:39:59.429Z,18.30
2022-09-22T23:46:47.381Z,18.13
2022-09-22T23:53:35.589Z,17.63
